Time;durP1;ratioP1;P1;durP2;ratioP2;P2;SDS_P1;SDS_P2;PMS_P1;PMS_P2;Temp;Humidity;BMP_temperature;BMP_pressure;BME280_temperature;BME280_humidity;BME280_pressure;Samples;Min_cycle;Max_cycle;Signal;HPM_P1;HPM_P2
2022/12/10 00:01:44;;;;;;;63.90;26.77;;;-3.60;99.90;;;;;;5033444;28;20024;-39
2022/12/10 00:04:11;;;;;;;49.53;24.38;;;-3.60;99.90;;;;;;5033527;28;20041;-40
2022/12/10 00:06:38;;;;;;;47.45;24.33;;;-3.70;99.90;;;;;;5031958;28;20560;-40
2022/12/10 00:09:06;;;;;;;45.40;21.95;;;-3.80;99.90;;;;;;5033228;28;20038;-44
2022/12/10 00:11:32;;;;;;;47.40;22.33;;;-3.80;99.90;;;;;;5033362;28;20037;-42
2022/12/10 00:13:59;;;;;;;62.08;26.52;;;-3.80;99.90;;;;;;5033135;28;20029;-40
2022/12/10 00:16:26;;;;;;;73.45;27.40;;;-3.70;99.90;;;;;;5033300;28;20053;-43
2022/12/10 00:18:53;;;;;;;78.82;29.73;;;-3.70;99.90;;;;;;5033237;28;20025;-40
2022/12/10 00:21:22;;;;;;;73.03;28.52;;;-3.70;99.90;;;;;;5033288;28;20024;-41
2022/12/10 00:23:48;;;;;;;74.57;29.75;;;-3.70;99.90;;;;;;5033333;28;20033;-57
2022/12/10 00:26:19;;;;;;;80.28;30.25;;;-3.60;99.90;;;;;;5033221;28;20127;-44
2022/12/10 00:28:46;;;;;;;81.75;30.52;;;-3.60;99.90;;;;;;5032571;28;20093;-45
2022/12/10 00:31:26;;;;;;;82.40;30.25;;;-3.70;99.90;;;;;;5032825;28;20112;-44
2022/12/10 00:33:58;;;;;;;65.40;26.60;;;-3.70;99.90;;;;;;5032733;28;20026;-41
2022/12/10 00:36:28;;;;;;;68.43;27.88;;;-3.70;99.90;;;;;;5032933;28;20098;-44
2022/12/10 00:38:55;;;;;;;68.90;28.48;;;-3.70;99.90;;;;;;5031375;28;20025;-42
2022/12/10 00:41:21;;;;;;;71.05;27.73;;;-3.80;99.90;;;;;;5032730;28;20037;-40
2022/12/10 00:43:47;;;;;;;64.38;26.33;;;-3.90;99.90;;;;;;5032053;28;20029;-48
2022/12/10 00:46:14;;;;;;;67.65;26.77;;;-3.90;99.90;;;;;;5032400;28;20655;-47
2022/12/10 00:48:41;;;;;;;66.00;27.38;;;-3.90;99.90;;;;;;5018583;28;20022;-40
2022/12/10 00:51:13;;;;;;;62.60;25.15;;;-4.00;99.90;;;;;;5033001;28;20033;-46
2022/12/10 00:53:43;;;;;;;55.70;23.75;;;-4.10;99.90;;;;;;5031934;28;20043;-42
2022/12/10 00:56:10;;;;;;;51.08;23.80;;;-4.20;99.90;;;;;;5032488;28;20100;-41
2022/12/10 00:58:37;;;;;;;55.90;25.92;;;-4.20;99.90;;;;;;5032132;28;20046;-42
2022/12/10 01:01:17;;;;;;;70.07;26.60;;;-4.10;99.90;;;;;;5032350;28;20021;-39
2022/12/10 01:03:43;;;;;;;53.80;24.08;;;-3.50;99.90;;;;;;5031069;28;20064;-42
2022/12/10 01:06:21;;;;;;;62.55;28.17;;;-4.00;99.90;;;;;;5032200;28;20040;-50
2022/12/10 01:08:47;;;;;;;68.45;28.50;;;-3.90;99.90;;;;;;5031973;28;20021;-48
2022/12/10 01:11:15;;;;;;;71.88;29.67;;;-3.90;99.90;;;;;;5032068;28;20404;-38
2022/12/10 01:13:41;;;;;;;68.32;27.48;;;-3.80;99.90;;;;;;5032198;28;20037;-52
2022/12/10 01:16:09;;;;;;;65.68;25.40;;;-2.90;99.90;;;;;;5031834;28;20043;-45
2022/12/10 01:18:35;;;;;;;76.10;26.90;;;-3.90;99.90;;;;;;5031749;28;20064;-42
2022/12/10 01:21:06;;;;;;;64.25;26.75;;;-3.90;99.90;;;;;;5031683;28;20038;-41
2022/12/10 01:23:34;;;;;;;67.82;28.30;;;-3.80;99.90;;;;;;5031644;28;20646;-49
2022/12/10 01:26:05;;;;;;;69.30;27.85;;;-3.80;99.90;;;;;;5031678;28;20064;-40
2022/12/10 01:28:32;;;;;;;67.57;28.00;;;-3.80;99.90;;;;;;5031766;28;20108;-55
2022/12/10 01:31:03;;;;;;;65.28;25.52;;;-3.80;99.90;;;;;;5031893;28;20075;-40
2022/12/10 01:33:30;;;;;;;62.47;25.63;;;-3.70;99.90;;;;;;5031821;28;20017;-40
2022/12/10 01:35:56;;;;;;;62.65;24.75;;;-3.70;99.90;;;;;;5031846;28;20037;-40
2022/12/10 01:38:22;;;;;;;61.15;26.58;;;-3.80;99.90;;;;;;5031274;28;20021;-43
2022/12/10 01:40:47;;;;;;;61.55;24.23;;;-3.70;99.90;;;;;;5031546;28;20038;-40
2022/12/10 01:43:14;;;;;;;61.67;25.25;;;-3.70;99.90;;;;;;5031473;28;20040;-49
2022/12/10 01:45:40;;;;;;;56.97;22.85;;;-3.70;99.90;;;;;;5031415;28;20025;-43
2022/12/10 01:48:06;;;;;;;52.53;22.10;;;-3.80;99.90;;;;;;5031235;28;20481;-43
2022/12/10 01:50:32;;;;;;;54.75;24.27;;;-3.80;99.90;;;;;;5031553;28;20026;-41
2022/12/10 01:52:57;;;;;;;51.25;23.67;;;-3.70;99.90;;;;;;5031105;28;20028;-48
2022/12/10 01:55:44;;;;;;;48.92;21.38;;;-3.70;99.90;;;;;;5031582;28;20036;-49
2022/12/10 01:58:10;;;;;;;56.05;24.55;;;-3.70;99.90;;;;;;5031008;28;20052;-40
2022/12/10 02:00:43;;;;;;;55.60;23.45;;;-3.60;99.90;;;;;;5031341;28;20021;-39
2022/12/10 02:03:15;;;;;;;55.05;23.35;;;-3.60;99.90;;;;;;5031218;28;20496;-39
2022/12/10 02:05:52;;;;;;;53.78;25.40;;;-2.80;99.90;;;;;;5031131;28;20044;-47
2022/12/10 02:08:40;;;;;;;50.30;22.48;;;-3.70;99.90;;;;;;5031087;28;20022;-48
2022/12/10 02:11:16;;;;;;;50.60;22.55;;;-3.70;99.90;;;;;;5036701;28;20022;-43
2022/12/10 02:13:56;;;;;;;53.55;21.50;;;-3.70;99.90;;;;;;5030581;28;20037;-40
2022/12/10 02:16:36;;;;;;;53.83;23.98;;;-3.70;99.90;;;;;;5030586;28;20025;-42
2022/12/10 02:19:28;;;;;;;49.45;22.35;;;-3.70;99.90;;;;;;5030530;28;20040;-41
2022/12/10 02:21:55;;;;;;;52.15;22.17;;;-3.70;99.90;;;;;;5017769;28;20040;-45
2022/12/10 02:24:28;;;;;;;52.38;24.23;;;-3.70;99.90;;;;;;5030495;28;20033;-49
2022/12/10 02:27:21;;;;;;;51.70;21.90;;;-3.60;99.90;;;;;;5030762;28;20140;-54
2022/12/10 02:29:49;;;;;;;57.22;23.95;;;-3.60;99.90;;;;;;5030743;28;20041;-39
2022/12/10 02:32:21;;;;;;;47.50;22.55;;;-3.60;99.90;;;;;;5030604;28;20060;-45
2022/12/10 02:34:55;;;;;;;53.08;22.27;;;-3.60;99.90;;;;;;5030588;28;20025;-42
2022/12/10 02:37:52;;;;;;;52.47;23.73;;;-3.70;99.90;;;;;;5030716;28;20057;-48
2022/12/10 02:40:26;;;;;;;59.13;21.92;;;-3.70;99.90;;;;;;5030148;28;20038;-51
2022/12/10 02:42:52;;;;;;;55.47;23.88;;;-3.70;99.90;;;;;;5024663;28;20424;-52
2022/12/10 02:45:21;;;;;;;56.30;23.25;;;-3.70;99.90;;;;;;5030901;28;20035;-47
2022/12/10 02:47:48;;;;;;;58.85;22.33;;;-3.70;99.90;;;;;;5030166;28;20018;-40
2022/12/10 02:50:18;;;;;;;50.00;20.88;;;-3.70;99.90;;;;;;5030674;28;20044;-56
2022/12/10 02:52:44;;;;;;;51.83;22.92;;;-3.80;99.90;;;;;;5030351;28;20627;-60
2022/12/10 02:55:13;;;;;;;51.30;22.27;;;-3.80;99.90;;;;;;5030365;28;20071;-39
2022/12/10 02:57:47;;;;;;;60.20;23.98;;;-3.80;99.90;;;;;;5030183;28;20068;-43
2022/12/10 03:00:24;;;;;;;52.47;24.08;;;-3.90;99.90;;;;;;5030498;28;20032;-40
2022/12/10 03:03:13;;;;;;;57.42;21.48;;;-4.00;99.90;;;;;;5030062;28;20071;-42
2022/12/10 03:05:56;;;;;;;52.97;21.75;;;-4.10;99.90;;;;;;5030288;28;20025;-40
2022/12/10 03:08:37;;;;;;;46.70;18.65;;;-4.10;99.90;;;;;;5056526;28;20026;-45
2022/12/10 03:11:13;;;;;;;52.30;21.33;;;-4.20;99.90;;;;;;5030226;28;20034;-39
2022/12/10 03:13:55;;;;;;;52.13;23.17;;;-4.80;99.90;;;;;;5030442;28;20083;-44
2022/12/10 03:16:23;;;;;;;45.17;22.90;;;-4.70;99.90;;;;;;5017627;28;20056;-45
2022/12/10 03:18:57;;;;;;;56.90;23.27;;;-4.20;99.90;;;;;;5029941;28;20037;-40
2022/12/10 03:21:24;;;;;;;49.63;21.42;;;-4.10;99.90;;;;;;5030316;28;20105;-43
2022/12/10 03:23:50;;;;;;;52.85;20.05;;;-4.10;99.90;;;;;;5030285;28;20037;-47
2022/12/10 03:26:17;;;;;;;44.08;19.05;;;-4.20;99.90;;;;;;5031311;28;20467;-41
2022/12/10 03:28:50;;;;;;;44.63;19.55;;;-4.20;99.90;;;;;;5034199;28;20061;-41
2022/12/10 03:31:17;;;;;;;44.85;19.65;;;-4.30;99.90;;;;;;5033875;28;20018;-39
2022/12/10 03:33:45;;;;;;;42.35;19.05;;;-4.30;99.90;;;;;;5032640;28;20063;-39
2022/12/10 03:36:11;;;;;;;51.33;19.85;;;-4.30;99.90;;;;;;5033658;28;20022;-39
2022/12/10 03:38:38;;;;;;;50.88;20.90;;;-4.30;99.90;;;;;;5033858;28;20164;-41
2022/12/10 03:41:04;;;;;;;49.47;21.17;;;-4.30;99.90;;;;;;5033730;28;20041;-38
2022/12/10 03:43:29;;;;;;;52.30;21.83;;;-4.30;99.90;;;;;;5033648;28;20037;-38
2022/12/10 03:45:55;;;;;;;45.83;20.92;;;-4.30;99.90;;;;;;5033742;28;20105;-40
2022/12/10 03:48:20;;;;;;;44.53;20.35;;;-4.30;99.90;;;;;;5033765;28;20025;-41
2022/12/10 03:50:46;;;;;;;45.38;21.23;;;-4.30;99.90;;;;;;5033440;28;20025;-43
2022/12/10 03:53:12;;;;;;;53.55;21.50;;;-4.30;99.90;;;;;;5033297;28;20029;-41
2022/12/10 03:55:37;;;;;;;46.30;20.45;;;-4.40;99.90;;;;;;5033359;28;20064;-40
2022/12/10 03:58:03;;;;;;;51.90;21.00;;;-4.40;99.90;;;;;;5033352;28;20547;-41
2022/12/10 04:00:29;;;;;;;51.70;21.80;;;-4.50;99.90;;;;;;5033354;28;20449;-41
2022/12/10 04:02:55;;;;;;;51.17;20.80;;;-4.60;99.90;;;;;;5033409;28;20400;-40
2022/12/10 04:05:20;;;;;;;48.13;20.13;;;-4.60;99.90;;;;;;5033081;28;20025;-48
2022/12/10 04:07:46;;;;;;;47.63;19.35;;;-4.60;99.90;;;;;;5033389;28;20055;-48
2022/12/10 04:10:12;;;;;;;39.85;18.92;;;-4.70;99.90;;;;;;5032925;28;20033;-54
2022/12/10 04:12:38;;;;;;;47.22;20.98;;;-4.70;99.90;;;;;;5033186;28;20040;-46
2022/12/10 04:17:48;;;;;;;45.72;19.17;;;-4.70;99.90;;;;;;5031330;28;20095;-50
2022/12/10 04:28:26;;;;;;;45.08;19.25;;;-4.60;99.90;;;;;;5032951;28;20036;-44
2022/12/10 04:30:51;;;;;;;51.08;21.38;;;-4.50;99.90;;;;;;5032547;28;20022;-43
2022/12/10 04:33:17;;;;;;;46.42;20.33;;;-4.50;99.90;;;;;;5032811;28;20112;-47
2022/12/10 04:35:42;;;;;;;44.60;20.10;;;-4.50;99.90;;;;;;5032692;28;20366;-41
2022/12/10 04:38:08;;;;;;;45.95;19.88;;;-4.60;99.90;;;;;;5031167;28;20025;-40
2022/12/10 04:40:34;;;;;;;44.08;18.60;;;-4.60;99.90;;;;;;5032250;28;20080;-43
2022/12/10 04:42:59;;;;;;;43.15;19.85;;;-4.70;99.90;;;;;;5035925;28;20408;-40
2022/12/10 04:45:25;;;;;;;48.10;21.63;;;-4.80;99.90;;;;;;5044720;28;20052;-45
2022/12/10 04:47:50;;;;;;;38.60;18.17;;;-4.80;99.90;;;;;;5039199;28;20033;-43
2022/12/10 04:50:16;;;;;;;35.22;17.23;;;-4.90;99.90;;;;;;5049727;28;20361;-40
2022/12/10 04:52:41;;;;;;;35.28;17.58;;;-4.80;99.90;;;;;;5043790;28;20399;-48
2022/12/10 04:55:08;;;;;;;35.47;17.13;;;-4.80;99.90;;;;;;5049080;28;20483;-46
2022/12/10 04:57:33;;;;;;;37.40;16.65;;;-4.80;99.90;;;;;;5041615;28;20055;-49
2022/12/10 04:59:59;;;;;;;39.78;17.08;;;-4.70;99.90;;;;;;5052235;28;20380;-53
2022/12/10 05:02:24;;;;;;;32.78;15.85;;;-4.70;99.90;;;;;;5032912;28;20033;-47
2022/12/10 05:04:50;;;;;;;34.97;16.65;;;-4.60;99.90;;;;;;5032174;28;20041;-55
2022/12/10 05:07:15;;;;;;;36.38;15.65;;;-4.60;99.90;;;;;;5031957;28;20022;-41
2022/12/10 05:09:41;;;;;;;36.13;16.73;;;-4.60;99.90;;;;;;5032417;28;20472;-50
2022/12/10 05:12:07;;;;;;;36.65;16.10;;;-4.60;99.90;;;;;;5031679;28;20127;-47
2022/12/10 05:14:32;;;;;;;40.50;18.13;;;-4.50;99.90;;;;;;5034050;28;20044;-40
2022/12/10 05:16:58;;;;;;;46.10;18.73;;;-4.50;99.90;;;;;;5031943;28;20022;-44
2022/12/10 05:19:26;;;;;;;45.63;18.00;;;-4.50;99.90;;;;;;5031907;28;20101;-39
2022/12/10 05:24:37;;;;;;;42.10;18.63;;;-4.60;99.90;;;;;;5031016;28;20107;-40
2022/12/10 05:27:03;;;;;;;40.45;17.65;;;-4.60;99.90;;;;;;5031512;28;20021;-50
2022/12/10 05:29:31;;;;;;;43.65;18.17;;;-4.60;99.90;;;;;;5032820;28;20036;-44
2022/12/10 05:31:57;;;;;;;39.85;18.52;;;-4.60;99.90;;;;;;5038423;28;20075;-45
2022/12/10 05:34:22;;;;;;;42.65;18.58;;;-4.70;99.90;;;;;;5050251;28;20467;-46
2022/12/10 05:36:48;;;;;;;35.33;18.15;;;-4.70;99.90;;;;;;5044522;28;20147;-42
2022/12/10 05:39:14;;;;;;;38.03;17.98;;;-4.80;99.90;;;;;;5046332;28;20051;-40
2022/12/10 05:41:40;;;;;;;43.33;19.95;;;-4.80;99.90;;;;;;5031514;28;20029;-43
2022/12/10 05:44:07;;;;;;;39.50;18.58;;;-4.80;99.90;;;;;;5023125;28;20044;-43
2022/12/10 05:46:34;;;;;;;42.83;18.30;;;-4.70;99.90;;;;;;5031118;28;20037;-42
2022/12/10 05:49:01;;;;;;;36.08;17.08;;;-4.80;99.90;;;;;;5040825;28;20033;-45
2022/12/10 05:51:32;;;;;;;36.20;17.48;;;-4.70;99.90;;;;;;5043445;28;20385;-48
2022/12/10 05:53:59;;;;;;;38.95;16.90;;;-4.70;99.90;;;;;;5051326;28;20547;-41
2022/12/10 05:56:25;;;;;;;32.17;16.30;;;-4.70;99.90;;;;;;5040529;28;20087;-41
2022/12/10 05:58:56;;;;;;;45.65;19.95;;;-4.70;99.90;;;;;;5051174;28;20484;-45
2022/12/10 06:01:25;;;;;;;37.28;17.77;;;-4.60;99.90;;;;;;5041151;28;20029;-44
2022/12/10 06:03:52;;;;;;;37.03;18.63;;;-4.60;99.90;;;;;;5051119;28;20032;-46
2022/12/10 06:06:22;;;;;;;39.83;18.38;;;-4.60;99.90;;;;;;5041390;28;20159;-49
2022/12/10 06:08:48;;;;;;;39.22;17.70;;;-4.70;99.90;;;;;;5023632;28;20025;-49
2022/12/10 06:11:14;;;;;;;38.58;18.23;;;-4.70;99.90;;;;;;5041115;28;20036;-46
2022/12/10 06:13:40;;;;;;;35.95;16.13;;;-4.80;99.90;;;;;;5040300;28;20394;-53
2022/12/10 06:16:09;;;;;;;40.70;17.35;;;-4.70;99.90;;;;;;5042137;28;20049;-57
2022/12/10 06:18:36;;;;;;;35.90;15.10;;;-4.80;99.90;;;;;;5047798;28;20029;-50
2022/12/10 06:21:10;;;;;;;29.58;13.98;;;-4.80;99.90;;;;;;5042935;28;20029;-50
2022/12/10 06:23:37;;;;;;;32.10;14.48;;;-4.80;99.90;;;;;;5046529;28;20060;-50
2022/12/10 06:26:07;;;;;;;33.47;14.98;;;-4.90;99.90;;;;;;5050897;28;20017;-46
2022/12/10 06:28:33;;;;;;;29.00;14.50;;;-4.90;99.90;;;;;;5033984;28;20038;-46
2022/12/10 06:30:59;;;;;;;25.52;14.82;;;-4.90;99.90;;;;;;5030784;28;20024;-47
2022/12/10 06:33:26;;;;;;;32.30;14.90;;;-4.90;99.90;;;;;;5030843;28;20017;-43
2022/12/10 06:35:51;;;;;;;27.65;14.73;;;-4.70;99.90;;;;;;5030666;28;20385;-41
2022/12/10 06:38:17;;;;;;;29.80;14.15;;;-4.60;99.90;;;;;;5030794;28;20060;-49
2022/12/10 06:40:44;;;;;;;31.63;15.80;;;-4.60;99.90;;;;;;5030763;28;20040;-46
2022/12/10 06:43:10;;;;;;;28.08;15.52;;;-4.50;99.90;;;;;;5030820;28;20030;-45
2022/12/10 06:45:40;;;;;;;34.13;15.43;;;-4.50;99.90;;;;;;5030579;28;20036;-40
2022/12/10 06:48:06;;;;;;;31.65;15.88;;;-4.60;99.90;;;;;;5034142;28;20067;-47
2022/12/10 06:50:31;;;;;;;36.42;16.00;;;-4.70;99.90;;;;;;5045066;28;20022;-45
2022/12/10 06:52:57;;;;;;;28.95;14.48;;;-4.70;99.90;;;;;;5038863;28;20037;-41
2022/12/10 06:55:22;;;;;;;33.22;13.90;;;-4.70;99.90;;;;;;5050448;28;20033;-39
2022/12/10 06:57:52;;;;;;;37.67;15.38;;;-4.80;99.90;;;;;;5050422;28;20045;-40
2022/12/10 07:00:18;;;;;;;30.00;14.38;;;-4.80;99.90;;;;;;5050642;28;20017;-49
2022/12/10 07:02:43;;;;;;;29.33;13.98;;;-4.80;99.90;;;;;;5053999;28;20028;-39
2022/12/10 07:05:09;;;;;;;31.52;14.15;;;-4.80;99.90;;;;;;5054374;28;20352;-45
2022/12/10 07:07:36;;;;;;;31.10;14.05;;;-4.80;99.90;;;;;;5036555;28;20025;-39
2022/12/10 07:10:02;;;;;;;28.38;13.70;;;-4.80;99.90;;;;;;5054329;28;20025;-39
2022/12/10 07:12:27;;;;;;;30.90;13.88;;;-4.80;99.90;;;;;;5049446;28;20028;-41
2022/12/10 07:14:53;;;;;;;31.08;12.95;;;-4.80;99.90;;;;;;5048443;28;20024;-39
2022/12/10 07:17:19;;;;;;;30.73;15.10;;;-4.80;99.90;;;;;;5054208;28;20037;-40
2022/12/10 07:19:44;;;;;;;31.05;15.07;;;-4.80;99.90;;;;;;5054214;28;20439;-43
2022/12/10 07:22:10;;;;;;;35.72;15.77;;;-4.70;99.90;;;;;;5054028;28;20451;-44
2022/12/10 07:24:36;;;;;;;31.20;14.95;;;-4.60;99.90;;;;;;5054330;28;20424;-50
2022/12/10 07:27:05;;;;;;;39.70;16.00;;;-4.60;99.90;;;;;;5054097;28;20476;-48
2022/12/10 07:29:30;;;;;;;31.27;15.40;;;-4.60;99.90;;;;;;5054207;28;20021;-42
2022/12/10 07:31:56;;;;;;;34.47;15.63;;;-4.60;99.90;;;;;;5053922;28;20625;-48
2022/12/10 07:34:22;;;;;;;34.72;15.50;;;-4.70;99.90;;;;;;5054009;28;20086;-49
2022/12/10 07:36:47;;;;;;;34.17;16.05;;;-4.70;99.90;;;;;;5053829;28;20033;-56
2022/12/10 07:39:19;;;;;;;36.15;15.95;;;-4.70;99.90;;;;;;5053895;28;20032;-56
2022/12/10 07:41:50;;;;;;;34.10;16.25;;;-4.70;99.90;;;;;;5053982;28;20037;-46
2022/12/10 07:44:18;;;;;;;36.88;15.65;;;-4.70;99.90;;;;;;5040092;28;20041;-53
2022/12/10 07:46:44;;;;;;;30.67;15.02;;;-4.70;99.90;;;;;;5037595;28;20103;-43
2022/12/10 07:49:10;;;;;;;36.60;17.88;;;-4.60;99.90;;;;;;5046043;28;20067;-43
2022/12/10 07:51:36;;;;;;;34.33;15.52;;;-4.80;99.90;;;;;;5052937;28;20049;-40
2022/12/10 07:54:02;;;;;;;37.75;16.25;;;-4.80;99.90;;;;;;5037834;28;20582;-47
2022/12/10 07:56:27;;;;;;;28.25;14.60;;;-4.80;99.90;;;;;;5049783;28;20017;-45
2022/12/10 07:58:54;;;;;;;27.85;14.57;;;-4.90;99.90;;;;;;5051970;28;20043;-51
2022/12/10 08:01:25;;;;;;;33.35;16.27;;;-4.90;99.90;;;;;;5043760;28;20392;-45
2022/12/10 08:03:52;;;;;;;34.75;15.73;;;-4.90;99.90;;;;;;5019454;28;20468;-39
2022/12/10 08:06:20;;;;;;;32.95;15.63;;;-4.90;99.90;;;;;;5045662;28;20029;-48
2022/12/10 08:08:47;;;;;;;36.10;18.08;;;-4.90;99.90;;;;;;5051968;28;20369;-43
2022/12/10 08:11:14;;;;;;;30.15;15.32;;;-4.80;99.90;;;;;;5051983;28;20538;-40
2022/12/10 08:13:40;;;;;;;32.47;16.05;;;-4.80;99.90;;;;;;5041033;28;20029;-40
2022/12/10 08:16:13;;;;;;;31.48;15.40;;;-4.90;99.90;;;;;;5051917;28;20086;-48
2022/12/10 08:18:39;;;;;;;35.05;15.15;;;-4.90;99.90;;;;;;5050751;28;20371;-50
2022/12/10 08:21:13;;;;;;;35.40;15.63;;;-4.70;99.90;;;;;;5048516;28;20476;-45
2022/12/10 08:23:40;;;;;;;29.38;15.48;;;-4.60;99.90;;;;;;5046392;28;20090;-42
2022/12/10 08:26:08;;;;;;;33.22;16.83;;;-4.50;99.90;;;;;;5049146;28;20017;-44
2022/12/10 08:28:34;;;;;;;38.85;15.88;;;-4.40;99.90;;;;;;5048615;28;20108;-41
2022/12/10 08:31:00;;;;;;;44.08;17.90;;;-4.10;99.90;;;;;;5066257;28;20032;-48
2022/12/10 08:33:26;;;;;;;36.20;17.00;;;-3.40;99.90;;;;;;5049968;28;20448;-40
2022/12/10 08:35:52;;;;;;;34.10;16.33;;;-2.50;99.90;;;;;;5050306;28;20048;-44
2022/12/10 08:38:18;;;;;;;31.40;15.52;;;-1.70;99.90;;;;;;5042806;28;20024;-43
2022/12/10 08:40:44;;;;;;;25.55;13.70;;;-0.80;99.90;;;;;;5046310;28;20017;-51
2022/12/10 08:43:09;;;;;;;31.00;13.85;;;0.10;99.90;;;;;;5038292;28;20029;-45
2022/12/10 08:45:35;;;;;;;30.35;13.80;;;1.00;99.90;;;;;;5032344;28;20041;-52
2022/12/10 08:48:01;;;;;;;26.58;12.45;;;2.10;99.90;;;;;;5063503;28;20040;-39
2022/12/10 08:50:28;;;;;;;24.10;12.55;;;3.00;99.90;;;;;;5042289;28;20472;-48
2022/12/10 08:52:54;;;;;;;25.95;12.65;;;3.00;99.90;;;;;;5044892;28;20030;-43
2022/12/10 08:55:19;;;;;;;22.58;11.85;;;2.70;99.90;;;;;;5048277;28;20044;-41
2022/12/10 08:57:45;;;;;;;22.30;11.95;;;1.80;99.90;;;;;;4998576;28;1114721;-43
2022/12/10 09:00:13;;;;;;;26.17;13.95;;;1.20;99.90;;;;;;5032079;28;20068;-49
2022/12/10 09:02:39;;;;;;;25.10;13.43;;;0.50;99.90;;;;;;5032487;28;20116;-49
2022/12/10 09:05:05;;;;;;;25.85;12.85;;;0.00;99.90;;;;;;5031980;28;20108;-50
2022/12/10 09:07:31;;;;;;;24.40;14.05;;;-0.40;99.90;;;;;;5032165;28;20045;-45
2022/12/10 09:09:57;;;;;;;26.45;13.93;;;-0.80;99.90;;;;;;5031878;28;20080;-44
2022/12/10 09:12:23;;;;;;;26.38;14.35;;;-1.00;99.90;;;;;;5042468;28;20075;-41
2022/12/10 09:14:49;;;;;;;25.33;14.00;;;-1.20;99.90;;;;;;5048536;28;20033;-46
2022/12/10 09:17:14;;;;;;;28.15;15.00;;;-1.40;99.90;;;;;;5047200;28;20047;-41
2022/12/10 09:19:40;;;;;;;28.35;15.30;;;-1.50;99.90;;;;;;5048741;28;20024;-47
2022/12/10 09:22:05;;;;;;;26.45;14.15;;;-1.50;99.90;;;;;;5044545;28;20044;-41
2022/12/10 09:24:31;;;;;;;32.90;15.50;;;-1.50;99.90;;;;;;5039006;28;20040;-46
2022/12/10 09:26:57;;;;;;;25.27;14.88;;;-1.50;99.90;;;;;;5045285;28;20025;-40
2022/12/10 09:29:22;;;;;;;28.52;15.43;;;-1.50;99.90;;;;;;5042622;28;20067;-43
2022/12/10 09:31:52;;;;;;;30.75;15.52;;;-1.50;99.90;;;;;;5041699;28;20021;-42
2022/12/10 09:34:18;;;;;;;28.70;15.75;;;-1.40;99.90;;;;;;5030587;28;20042;-50
2022/12/10 09:36:44;;;;;;;36.90;16.33;;;-1.40;99.90;;;;;;5030976;28;20120;-50
2022/12/10 09:39:09;;;;;;;30.52;15.98;;;-1.30;99.90;;;;;;5039911;28;20029;-43
2022/12/10 09:42:16;;;;;;;30.63;15.70;;;-1.20;99.90;;;;;;5037339;28;20037;-50
2022/12/10 09:44:45;;;;;;;33.70;15.57;;;-1.10;99.90;;;;;;5026678;28;20131;-41
2022/12/10 09:47:12;;;;;;;37.13;15.88;;;-1.10;99.90;;;;;;5024316;28;20060;-40
2022/12/10 09:49:57;;;;;;;28.85;17.02;;;-0.90;99.90;;;;;;5022490;28;20087;-40
2022/12/10 09:52:25;;;;;;;34.80;15.98;;;-0.80;99.90;;;;;;5025633;28;20292;-48
2022/12/10 09:55:00;;;;;;;32.58;17.45;;;-0.60;99.90;;;;;;5033368;28;20101;-44
2022/12/10 09:57:44;;;;;;;34.28;17.08;;;-0.60;99.90;;;;;;5033938;28;20323;-39
2022/12/10 10:00:21;;;;;;;36.00;18.45;;;-0.40;99.90;;;;;;5031423;28;20084;-48
2022/12/10 10:02:49;;;;;;;34.15;18.55;;;-0.40;99.90;;;;;;5025220;28;20018;-42
2022/12/10 10:05:26;;;;;;;33.55;17.45;;;-0.30;99.90;;;;;;5033595;28;20045;-39
2022/12/10 10:08:06;;;;;;;33.03;17.95;;;0.30;99.90;;;;;;5022270;28;20025;-40
2022/12/10 10:10:35;;;;;;;24.63;13.88;;;2.00;99.90;;;;;;5018957;28;20105;-40
2022/12/10 10:13:39;;;;;;;22.02;13.85;;;4.70;99.90;;;;;;5031759;28;20399;-40
2022/12/10 10:16:34;;;;;;;25.30;13.85;;;7.20;99.90;;;;;;5031914;28;20053;-43
2022/12/10 10:19:03;;;;;;;23.67;14.73;;;9.10;99.90;;;;;;5030781;28;20448;-42
2022/12/10 10:21:38;;;;;;;23.92;14.43;;;8.60;99.90;;;;;;5030271;28;20476;-41
2022/12/10 10:24:06;;;;;;;20.30;12.75;;;7.70;99.90;;;;;;5037042;28;20123;-45
2022/12/10 10:26:32;;;;;;;22.75;13.45;;;6.50;99.90;;;;;;5030603;28;20400;-46
2022/12/10 10:29:08;;;;;;;21.27;13.73;;;5.60;99.90;;;;;;5035420;28;20437;-47
2022/12/10 10:31:37;;;;;;;25.05;14.07;;;4.90;99.90;;;;;;5030511;28;20505;-46
2022/12/10 10:34:21;;;;;;;21.43;12.67;;;5.60;99.90;;;;;;5031094;28;20064;-47
2022/12/10 10:36:52;;;;;;;20.75;13.45;;;7.30;99.90;;;;;;5030292;28;20036;-42
2022/12/10 10:39:26;;;;;;;20.40;12.55;;;9.40;98.40;;;;;;5030892;28;20045;-42
2022/12/10 10:41:54;;;;;;;23.08;12.77;;;11.40;95.40;;;;;;5030319;28;20013;-56
2022/12/10 10:44:24;;;;;;;29.13;19.00;;;13.70;91.30;;;;;;5030170;28;20076;-54
2022/12/10 10:46:52;;;;;;;19.35;12.77;;;15.00;83.50;;;;;;5023754;28;20034;-48
2022/12/10 10:49:31;;;;;;;20.30;13.30;;;15.80;73.70;;;;;;5026982;28;20028;-45
2022/12/10 10:52:12;;;;;;;21.50;13.10;;;15.50;69.70;;;;;;5038794;28;20105;-44
2022/12/10 10:54:41;;;;;;;17.88;12.10;;;15.30;71.10;;;;;;5030049;28;20037;-49
2022/12/10 10:57:18;;;;;;;17.55;13.02;;;15.60;69.80;;;;;;5029715;28;20052;-41
2022/12/10 10:59:45;;;;;;;18.88;13.23;;;16.60;68.60;;;;;;5031880;28;20057;-49
2022/12/10 11:02:29;;;;;;;20.48;12.90;;;17.20;64.90;;;;;;5035824;28;20502;-43
2022/12/10 11:04:58;;;;;;;20.23;13.57;;;17.20;63.40;;;;;;5036814;28;20045;-52
2022/12/10 11:07:35;;;;;;;;;;;17.30;61.10;;;;;;5043664;28;20502;-53
2022/12/10 11:10:01;;;;;;;31.17;15.70;;;17.20;61.20;;;;;;5034491;28;19913;-46
2022/12/10 11:12:38;;;;;;;18.20;13.60;;;17.10;61.40;;;;;;5030295;28;20104;-44
2022/12/10 11:15:22;;;;;;;15.10;11.85;;;17.40;63.00;;;;;;5039772;28;20055;-51
2022/12/10 11:17:53;;;;;;;16.10;11.57;;;18.10;61.30;;;;;;5037499;28;20087;-46
2022/12/10 11:20:26;;;;;;;14.82;11.20;;;18.40;57.80;;;;;;5038384;28;20103;-48
2022/12/10 11:22:54;;;;;;;15.73;10.50;;;19.00;55.70;;;;;;5037364;28;20033;-49
2022/12/10 11:25:45;;;;;;;13.93;10.25;;;18.60;55.60;;;;;;5033213;28;20064;-43
2022/12/10 11:28:29;;;;;;;13.43;9.65;;;18.70;55.80;;;;;;5034595;28;20052;-42
2022/12/10 11:31:28;;;;;;;14.50;9.00;;;18.90;54.50;;;;;;5024901;28;20471;-43
2022/12/10 11:34:18;;;;;;;12.85;8.63;;;19.20;54.20;;;;;;5026213;28;20476;-46
2022/12/10 11:36:52;;;;;;;13.48;8.45;;;19.30;53.40;;;;;;5042926;28;20108;-42
2022/12/10 11:39:28;;;;;;;13.77;8.35;;;18.90;53.90;;;;;;5034637;28;20021;-47
2022/12/10 11:42:19;;;;;;;10.80;7.90;;;18.80;53.50;;;;;;5034412;28;20021;-50
2022/12/10 11:45:10;;;;;;;10.30;7.75;;;18.90;53.60;;;;;;5036149;28;20060;-45
2022/12/10 11:48:09;;;;;;;11.82;8.00;;;18.20;54.50;;;;;;5018188;28;20042;-44
2022/12/10 11:50:45;;;;;;;12.27;8.27;;;18.60;56.20;;;;;;5041565;28;20428;-44
2022/12/10 11:53:50;;;;;;;12.90;8.10;;;19.30;53.70;;;;;;5040140;28;20057;-49
2022/12/10 11:56:31;;;;;;;12.25;7.88;;;19.80;52.90;;;;;;5040060;28;20108;-42
2022/12/10 11:59:14;;;;;;;11.00;7.40;;;20.10;53.30;;;;;;5044683;28;20037;-51
2022/12/10 12:01:54;;;;;;;12.55;8.05;;;20.50;50.20;;;;;;5035835;28;20483;-48
2022/12/10 12:04:23;;;;;;;13.05;7.50;;;19.80;50.90;;;;;;5040420;28;20033;-48
2022/12/10 12:06:48;;;;;;;11.10;7.88;;;19.90;52.80;;;;;;5042223;28;20021;-44
2022/12/10 12:09:33;;;;;;;13.38;7.72;;;20.00;50.00;;;;;;5032820;28;20392;-46
2022/12/10 12:12:14;;;;;;;20.55;13.27;;;19.30;50.90;;;;;;5032268;28;20083;-46
2022/12/10 12:14:46;;;;;;;22.33;15.75;;;19.00;52.30;;;;;;5045244;28;20025;-42
2022/12/10 12:17:25;;;;;;;20.17;12.27;;;19.20;53.90;;;;;;5045574;28;20032;-51
2022/12/10 12:19:55;;;;;;;13.55;8.70;;;19.20;52.50;;;;;;5051901;28;20111;-51
2022/12/10 12:22:24;;;;;;;13.65;10.10;;;19.60;52.30;;;;;;5048983;28;20028;-46
2022/12/10 12:24:55;;;;;;;11.98;8.50;;;20.00;51.80;;;;;;5048210;28;20037;-43
2022/12/10 12:27:38;;;;;;;12.18;7.90;;;20.00;50.00;;;;;;5045548;28;20173;-41
2022/12/10 12:30:14;;;;;;;12.98;7.78;;;19.60;50.80;;;;;;5048003;28;20104;-41
2022/12/10 12:32:45;;;;;;;12.30;7.38;;;19.80;52.30;;;;;;5046712;28;20052;-45
2022/12/10 12:35:16;;;;;;;12.88;7.38;;;19.60;50.20;;;;;;5036762;28;20021;-41
2022/12/10 12:37:53;;;;;;;13.07;9.60;;;18.20;52.50;;;;;;5030479;28;20029;-48
2022/12/10 12:40:29;;;;;;;14.32;9.63;;;18.20;55.70;;;;;;5032672;28;20540;-46
2022/12/10 12:42:55;;;;;;;11.13;7.60;;;19.20;54.00;;;;;;5038932;28;20021;-44
2022/12/10 12:45:48;;;;;;;12.85;7.18;;;19.70;52.00;;;;;;5032460;28;20396;-45
2022/12/10 12:48:29;;;;;;;13.45;8.10;;;19.60;50.40;;;;;;5029492;28;20107;-41
2022/12/10 12:51:02;;;;;;;15.13;9.63;;;19.00;50.80;;;;;;5030355;28;20083;-45
2022/12/10 12:53:28;;;;;;;13.75;8.25;;;18.00;54.30;;;;;;5032124;28;20026;-45
2022/12/10 12:56:04;;;;;;;12.57;8.50;;;18.00;54.30;;;;;;5038033;28;20029;-41
2022/12/10 12:58:48;;;;;;;14.48;9.30;;;17.70;54.40;;;;;;5030945;28;20057;-44